sensor_id;sensor_type;location;lat;lon;timestamp;temperature;humidity
2839;DHT22;1427;48.510;9.060;2023-12-20T00:02:17;6.10;99.90
2839;DHT22;1427;48.510;9.060;2023-12-20T00:04:46;6.20;99.90
2839;DHT22;1427;48.510;9.060;2023-12-20T00:07:14;6.10;99.90
2839;DHT22;1427;48.510;9.060;2023-12-20T00:09:42;6.10;99.90
2839;DHT22;1427;48.510;9.060;2023-12-20T00:12:10;6.10;99.90
2839;DHT22;1427;48.510;9.060;2023-12-20T00:14:38;6.00;99.90
2839;DHT22;1427;48.510;9.060;2023-12-20T00:17:07;6.20;99.90
2839;DHT22;1427;48.510;9.060;2023-12-20T00:19:36;6.10;99.90
2839;DHT22;1427;48.510;9.060;2023-12-20T00:22:04;6.10;99.90
2839;DHT22;1427;48.510;9.060;2023-12-20T00:24:32;6.00;99.90
2839;DHT22;1427;48.510;9.060;2023-12-20T00:27:00;6.00;99.90
2839;DHT22;1427;48.510;9.060;2023-12-20T00:29:29;6.00;99.90
2839;DHT22;1427;48.510;9.060;2023-12-20T00:31:57;5.90;99.90
2839;DHT22;1427;48.510;9.060;2023-12-20T00:34:27;5.90;99.90
2839;DHT22;1427;48.510;9.060;2023-12-20T00:36:57;6.00;99.90
2839;DHT22;1427;48.510;9.060;2023-12-20T00:39:26;6.00;99.90
2839;DHT22;1427;48.510;9.060;2023-12-20T00:41:54;6.10;99.90
2839;DHT22;1427;48.510;9.060;2023-12-20T00:44:22;6.20;99.90
2839;DHT22;1427;48.510;9.060;2023-12-20T00:46:50;6.10;99.90
2839;DHT22;1427;48.510;9.060;2023-12-20T00:49:18;6.20;99.90
2839;DHT22;1427;48.510;9.060;2023-12-20T00:51:47;6.30;99.90
2839;DHT22;1427;48.510;9.060;2023-12-20T00:54:17;6.30;99.90
2839;DHT22;1427;48.510;9.060;2023-12-20T00:56:45;6.30;99.90
2839;DHT22;1427;48.510;9.060;2023-12-20T00:59:15;6.40;99.90
2839;DHT22;1427;48.510;9.060;2023-12-20T01:01:43;6.30;99.90
2839;DHT22;1427;48.510;9.060;2023-12-20T01:04:11;6.20;99.90
2839;DHT22;1427;48.510;9.060;2023-12-20T01:06:39;6.20;99.90
2839;DHT22;1427;48.510;9.060;2023-12-20T01:09:09;6.20;99.90
2839;DHT22;1427;48.510;9.060;2023-12-20T01:11:37;6.10;99.90
2839;DHT22;1427;48.510;9.060;2023-12-20T01:14:05;6.10;99.90
2839;DHT22;1427;48.510;9.060;2023-12-20T01:16:33;6.10;99.90
2839;DHT22;1427;48.510;9.060;2023-12-20T01:19:01;6.20;99.90
2839;DHT22;1427;48.510;9.060;2023-12-20T01:21:29;6.10;99.90
2839;DHT22;1427;48.510;9.060;2023-12-20T01:23:57;6.10;99.90
2839;DHT22;1427;48.510;9.060;2023-12-20T01:26:27;6.10;99.90
2839;DHT22;1427;48.510;9.060;2023-12-20T01:28:55;6.20;99.90
2839;DHT22;1427;48.510;9.060;2023-12-20T01:31:23;6.20;99.90
2839;DHT22;1427;48.510;9.060;2023-12-20T01:33:51;6.10;99.90
2839;DHT22;1427;48.510;9.060;2023-12-20T01:36:20;6.10;99.90
2839;DHT22;1427;48.510;9.060;2023-12-20T01:38:48;6.10;99.90
2839;DHT22;1427;48.510;9.060;2023-12-20T01:41:16;6.10;99.90
2839;DHT22;1427;48.510;9.060;2023-12-20T01:43:45;6.10;99.90
2839;DHT22;1427;48.510;9.060;2023-12-20T01:46:19;6.10;99.90
2839;DHT22;1427;48.510;9.060;2023-12-20T01:48:48;6.00;99.90
2839;DHT22;1427;48.510;9.060;2023-12-20T01:51:17;5.90;99.90
2839;DHT22;1427;48.510;9.060;2023-12-20T01:53:45;6.00;99.90
2839;DHT22;1427;48.510;9.060;2023-12-20T01:56:14;6.00;99.90
2839;DHT22;1427;48.510;9.060;2023-12-20T01:58:45;6.00;99.90
2839;DHT22;1427;48.510;9.060;2023-12-20T02:01:14;6.00;99.90
2839;DHT22;1427;48.510;9.060;2023-12-20T02:03:43;6.00;99.90
2839;DHT22;1427;48.510;9.060;2023-12-20T02:06:11;5.80;99.90
2839;DHT22;1427;48.510;9.060;2023-12-20T02:08:40;5.70;99.90
2839;DHT22;1427;48.510;9.060;2023-12-20T02:11:08;5.70;99.90
2839;DHT22;1427;48.510;9.060;2023-12-20T02:13:36;5.60;99.90
2839;DHT22;1427;48.510;9.060;2023-12-20T02:16:06;5.50;99.90
2839;DHT22;1427;48.510;9.060;2023-12-20T02:18:35;5.60;99.90
2839;DHT22;1427;48.510;9.060;2023-12-20T02:21:04;5.60;99.90
2839;DHT22;1427;48.510;9.060;2023-12-20T02:23:34;5.60;99.90
2839;DHT22;1427;48.510;9.060;2023-12-20T02:26:03;5.60;99.90
2839;DHT22;1427;48.510;9.060;2023-12-20T02:28:33;5.70;99.90
2839;DHT22;1427;48.510;9.060;2023-12-20T02:31:02;5.70;99.90
2839;DHT22;1427;48.510;9.060;2023-12-20T02:33:30;5.70;99.90
2839;DHT22;1427;48.510;9.060;2023-12-20T02:35:58;5.90;99.90
2839;DHT22;1427;48.510;9.060;2023-12-20T02:38:26;5.70;99.90
2839;DHT22;1427;48.510;9.060;2023-12-20T02:40:56;5.70;99.90
2839;DHT22;1427;48.510;9.060;2023-12-20T02:43:24;5.80;99.90
2839;DHT22;1427;48.510;9.060;2023-12-20T02:45:52;5.80;99.90
2839;DHT22;1427;48.510;9.060;2023-12-20T02:48:20;5.90;99.90
2839;DHT22;1427;48.510;9.060;2023-12-20T02:50:48;5.90;99.90
2839;DHT22;1427;48.510;9.060;2023-12-20T02:53:16;5.90;99.90
2839;DHT22;1427;48.510;9.060;2023-12-20T02:55:44;5.80;99.90
2839;DHT22;1427;48.510;9.060;2023-12-20T02:58:14;5.70;99.90
2839;DHT22;1427;48.510;9.060;2023-12-20T03:00:44;5.70;99.90
2839;DHT22;1427;48.510;9.060;2023-12-20T03:03:12;5.70;99.90
2839;DHT22;1427;48.510;9.060;2023-12-20T03:05:39;5.70;99.90
2839;DHT22;1427;48.510;9.060;2023-12-20T03:08:07;5.80;99.90
2839;DHT22;1427;48.510;9.060;2023-12-20T03:10:35;5.70;99.90
2839;DHT22;1427;48.510;9.060;2023-12-20T03:13:04;5.80;99.90
2839;DHT22;1427;48.510;9.060;2023-12-20T03:15:33;5.80;99.90
2839;DHT22;1427;48.510;9.060;2023-12-20T03:18:01;5.70;99.90
2839;DHT22;1427;48.510;9.060;2023-12-20T03:20:29;5.80;99.90
2839;DHT22;1427;48.510;9.060;2023-12-20T03:23:00;5.80;99.90
2839;DHT22;1427;48.510;9.060;2023-12-20T03:25:28;5.80;99.90
2839;DHT22;1427;48.510;9.060;2023-12-20T03:27:56;5.80;99.90
2839;DHT22;1427;48.510;9.060;2023-12-20T03:30:25;5.90;99.90
2839;DHT22;1427;48.510;9.060;2023-12-20T03:32:54;5.80;99.90
2839;DHT22;1427;48.510;9.060;2023-12-20T03:35:22;6.00;99.90
2839;DHT22;1427;48.510;9.060;2023-12-20T03:37:50;5.90;99.90
2839;DHT22;1427;48.510;9.060;2023-12-20T03:40:18;5.90;99.90
2839;DHT22;1427;48.510;9.060;2023-12-20T03:42:46;5.90;99.90
2839;DHT22;1427;48.510;9.060;2023-12-20T03:45:15;5.90;99.90
2839;DHT22;1427;48.510;9.060;2023-12-20T03:47:43;6.00;99.90
2839;DHT22;1427;48.510;9.060;2023-12-20T03:50:13;5.90;99.90
2839;DHT22;1427;48.510;9.060;2023-12-20T03:52:41;6.10;99.90
2839;DHT22;1427;48.510;9.060;2023-12-20T03:55:09;5.90;99.90
2839;DHT22;1427;48.510;9.060;2023-12-20T03:57:37;5.90;99.90
2839;DHT22;1427;48.510;9.060;2023-12-20T04:00:07;5.90;99.90
2839;DHT22;1427;48.510;9.060;2023-12-20T04:02:37;5.90;99.90
2839;DHT22;1427;48.510;9.060;2023-12-20T04:05:05;5.80;99.90
2839;DHT22;1427;48.510;9.060;2023-12-20T04:07:35;5.80;99.90
2839;DHT22;1427;48.510;9.060;2023-12-20T04:10:04;5.80;99.90
2839;DHT22;1427;48.510;9.060;2023-12-20T04:12:32;5.70;99.90
2839;DHT22;1427;48.510;9.060;2023-12-20T04:15:01;5.60;99.90
2839;DHT22;1427;48.510;9.060;2023-12-20T04:17:30;5.70;99.90
2839;DHT22;1427;48.510;9.060;2023-12-20T04:19:58;5.70;99.90
2839;DHT22;1427;48.510;9.060;2023-12-20T04:22:26;5.70;99.90
2839;DHT22;1427;48.510;9.060;2023-12-20T04:24:56;5.60;99.90
2839;DHT22;1427;48.510;9.060;2023-12-20T04:27:24;5.60;99.90
2839;DHT22;1427;48.510;9.060;2023-12-20T04:29:52;5.70;99.90
2839;DHT22;1427;48.510;9.060;2023-12-20T04:32:20;5.60;99.90
2839;DHT22;1427;48.510;9.060;2023-12-20T04:34:48;5.60;99.90
2839;DHT22;1427;48.510;9.060;2023-12-20T04:37:16;5.60;99.90
2839;DHT22;1427;48.510;9.060;2023-12-20T04:39:44;5.50;99.90
2839;DHT22;1427;48.510;9.060;2023-12-20T04:42:14;5.50;99.90
2839;DHT22;1427;48.510;9.060;2023-12-20T04:44:42;5.50;99.90
2839;DHT22;1427;48.510;9.060;2023-12-20T04:47:10;5.60;99.90
2839;DHT22;1427;48.510;9.060;2023-12-20T04:49:38;5.60;99.90
2839;DHT22;1427;48.510;9.060;2023-12-20T04:52:06;5.60;99.90
2839;DHT22;1427;48.510;9.060;2023-12-20T04:54:34;5.50;99.90
2839;DHT22;1427;48.510;9.060;2023-12-20T04:57:03;5.50;99.90
2839;DHT22;1427;48.510;9.060;2023-12-20T04:59:32;5.50;99.90
2839;DHT22;1427;48.510;9.060;2023-12-20T05:02:01;5.40;99.90
2839;DHT22;1427;48.510;9.060;2023-12-20T05:04:29;5.60;99.90
2839;DHT22;1427;48.510;9.060;2023-12-20T05:06:57;5.40;99.90
2839;DHT22;1427;48.510;9.060;2023-12-20T05:09:25;5.50;99.90
2839;DHT22;1427;48.510;9.060;2023-12-20T05:11:53;5.30;99.90
2839;DHT22;1427;48.510;9.060;2023-12-20T05:14:21;5.30;99.90
2839;DHT22;1427;48.510;9.060;2023-12-20T05:16:51;5.30;99.90
2839;DHT22;1427;48.510;9.060;2023-12-20T05:19:19;5.30;99.90
2839;DHT22;1427;48.510;9.060;2023-12-20T05:21:47;5.30;99.90
2839;DHT22;1427;48.510;9.060;2023-12-20T05:24:16;5.40;99.90
2839;DHT22;1427;48.510;9.060;2023-12-20T05:26:44;5.40;99.90
2839;DHT22;1427;48.510;9.060;2023-12-20T05:29:15;5.40;99.90
2839;DHT22;1427;48.510;9.060;2023-12-20T05:31:43;5.50;99.90
2839;DHT22;1427;48.510;9.060;2023-12-20T05:34:13;5.50;99.90
2839;DHT22;1427;48.510;9.060;2023-12-20T05:36:41;5.50;99.90
2839;DHT22;1427;48.510;9.060;2023-12-20T05:39:09;5.50;99.90
2839;DHT22;1427;48.510;9.060;2023-12-20T05:41:37;5.40;99.90
2839;DHT22;1427;48.510;9.060;2023-12-20T05:44:05;5.40;99.90
2839;DHT22;1427;48.510;9.060;2023-12-20T05:46:33;5.40;99.90
2839;DHT22;1427;48.510;9.060;2023-12-20T05:49:01;5.40;99.90
2839;DHT22;1427;48.510;9.060;2023-12-20T05:51:31;5.40;99.90
2839;DHT22;1427;48.510;9.060;2023-12-20T05:53:59;5.40;99.90
2839;DHT22;1427;48.510;9.060;2023-12-20T05:56:27;5.40;99.90
2839;DHT22;1427;48.510;9.060;2023-12-20T05:58:55;5.50;99.90
2839;DHT22;1427;48.510;9.060;2023-12-20T06:01:24;5.40;99.90
2839;DHT22;1427;48.510;9.060;2023-12-20T06:03:52;5.40;99.90
2839;DHT22;1427;48.510;9.060;2023-12-20T06:06:20;5.40;99.90
2839;DHT22;1427;48.510;9.060;2023-12-20T06:08:50;5.40;99.90
2839;DHT22;1427;48.510;9.060;2023-12-20T06:11:18;5.30;99.90
2839;DHT22;1427;48.510;9.060;2023-12-20T06:13:46;5.60;99.90
2839;DHT22;1427;48.510;9.060;2023-12-20T06:16:15;5.40;99.90
2839;DHT22;1427;48.510;9.060;2023-12-20T06:18:44;5.30;99.90
2839;DHT22;1427;48.510;9.060;2023-12-20T06:21:12;5.40;99.90
2839;DHT22;1427;48.510;9.060;2023-12-20T06:23:41;5.40;99.90
2839;DHT22;1427;48.510;9.060;2023-12-20T06:26:10;5.50;99.90
2839;DHT22;1427;48.510;9.060;2023-12-20T06:28:38;5.50;99.90
2839;DHT22;1427;48.510;9.060;2023-12-20T06:31:08;5.50;99.90
2839;DHT22;1427;48.510;9.060;2023-12-20T06:33:38;5.40;99.90
2839;DHT22;1427;48.510;9.060;2023-12-20T06:36:07;5.40;99.90
2839;DHT22;1427;48.510;9.060;2023-12-20T06:38:38;5.40;99.90
2839;DHT22;1427;48.510;9.060;2023-12-20T06:41:06;5.30;99.90
2839;DHT22;1427;48.510;9.060;2023-12-20T06:43:36;5.30;99.90
2839;DHT22;1427;48.510;9.060;2023-12-20T06:46:15;5.30;99.90
2839;DHT22;1427;48.510;9.060;2023-12-20T06:48:45;5.30;99.90
2839;DHT22;1427;48.510;9.060;2023-12-20T06:51:15;5.30;99.90
2839;DHT22;1427;48.510;9.060;2023-12-20T06:53:43;5.30;99.90
2839;DHT22;1427;48.510;9.060;2023-12-20T06:56:12;5.20;99.90
2839;DHT22;1427;48.510;9.060;2023-12-20T06:58:45;5.40;99.90
2839;DHT22;1427;48.510;9.060;2023-12-20T07:01:14;5.40;99.90
2839;DHT22;1427;48.510;9.060;2023-12-20T07:03:43;5.20;99.90
2839;DHT22;1427;48.510;9.060;2023-12-20T07:06:11;5.20;99.90
2839;DHT22;1427;48.510;9.060;2023-12-20T07:08:40;5.20;99.90
2839;DHT22;1427;48.510;9.060;2023-12-20T07:11:08;5.20;99.90
2839;DHT22;1427;48.510;9.060;2023-12-20T07:13:36;5.30;99.90
2839;DHT22;1427;48.510;9.060;2023-12-20T07:16:06;5.40;99.90
2839;DHT22;1427;48.510;9.060;2023-12-20T07:18:35;5.40;99.90
2839;DHT22;1427;48.510;9.060;2023-12-20T07:21:03;5.30;99.90
2839;DHT22;1427;48.510;9.060;2023-12-20T07:23:31;5.40;99.90
2839;DHT22;1427;48.510;9.060;2023-12-20T07:25:59;5.40;99.90
2839;DHT22;1427;48.510;9.060;2023-12-20T07:28:27;5.40;99.90
2839;DHT22;1427;48.510;9.060;2023-12-20T07:30:56;5.50;99.90
2839;DHT22;1427;48.510;9.060;2023-12-20T07:33:25;5.40;99.90
2839;DHT22;1427;48.510;9.060;2023-12-20T07:35:53;5.40;99.90
2839;DHT22;1427;48.510;9.060;2023-12-20T07:38:21;5.40;99.90
2839;DHT22;1427;48.510;9.060;2023-12-20T07:40:49;5.40;99.90
2839;DHT22;1427;48.510;9.060;2023-12-20T07:43:18;5.40;99.90
2839;DHT22;1427;48.510;9.060;2023-12-20T07:45:46;5.50;99.90
2839;DHT22;1427;48.510;9.060;2023-12-20T07:48:14;5.50;99.90
2839;DHT22;1427;48.510;9.060;2023-12-20T07:50:44;5.50;99.90
2839;DHT22;1427;48.510;9.060;2023-12-20T07:53:12;5.50;99.90
2839;DHT22;1427;48.510;9.060;2023-12-20T07:55:40;5.60;99.90
2839;DHT22;1427;48.510;9.060;2023-12-20T07:58:08;5.50;99.90
2839;DHT22;1427;48.510;9.060;2023-12-20T08:00:36;5.60;99.90
2839;DHT22;1427;48.510;9.060;2023-12-20T08:03:04;5.70;99.90
2839;DHT22;1427;48.510;9.060;2023-12-20T08:05:33;5.60;99.90
2839;DHT22;1427;48.510;9.060;2023-12-20T08:08:03;5.60;99.90
2839;DHT22;1427;48.510;9.060;2023-12-20T08:10:32;5.60;99.90
2839;DHT22;1427;48.510;9.060;2023-12-20T08:13:00;5.60;99.90
2839;DHT22;1427;48.510;9.060;2023-12-20T08:15:28;5.60;99.90
2839;DHT22;1427;48.510;9.060;2023-12-20T08:17:56;5.60;99.90
2839;DHT22;1427;48.510;9.060;2023-12-20T08:20:24;5.70;99.90
2839;DHT22;1427;48.510;9.060;2023-12-20T08:23:07;5.80;99.90
2839;DHT22;1427;48.510;9.060;2023-12-20T08:25:35;5.80;99.90
2839;DHT22;1427;48.510;9.060;2023-12-20T08:28:03;5.80;99.90
2839;DHT22;1427;48.510;9.060;2023-12-20T08:30:32;5.90;99.90
2839;DHT22;1427;48.510;9.060;2023-12-20T08:33:00;6.00;99.90
2839;DHT22;1427;48.510;9.060;2023-12-20T08:35:29;5.90;99.90
2839;DHT22;1427;48.510;9.060;2023-12-20T08:37:57;5.90;99.90
2839;DHT22;1427;48.510;9.060;2023-12-20T08:40:27;5.90;99.90
2839;DHT22;1427;48.510;9.060;2023-12-20T08:42:55;5.90;99.90
2839;DHT22;1427;48.510;9.060;2023-12-20T08:45:23;5.90;99.90
2839;DHT22;1427;48.510;9.060;2023-12-20T08:47:51;5.90;99.90
2839;DHT22;1427;48.510;9.060;2023-12-20T08:50:19;5.90;99.90
2839;DHT22;1427;48.510;9.060;2023-12-20T08:52:48;5.90;99.90
2839;DHT22;1427;48.510;9.060;2023-12-20T08:55:16;5.90;99.90
2839;DHT22;1427;48.510;9.060;2023-12-20T08:57:46;6.20;99.90
2839;DHT22;1427;48.510;9.060;2023-12-20T09:00:15;6.00;99.90
2839;DHT22;1427;48.510;9.060;2023-12-20T09:02:43;6.00;99.90
2839;DHT22;1427;48.510;9.060;2023-12-20T09:05:11;6.00;99.90
2839;DHT22;1427;48.510;9.060;2023-12-20T09:07:39;6.00;99.90
2839;DHT22;1427;48.510;9.060;2023-12-20T09:10:08;6.00;99.90
2839;DHT22;1427;48.510;9.060;2023-12-20T09:12:36;6.00;99.90
2839;DHT22;1427;48.510;9.060;2023-12-20T09:15:08;6.00;99.90
2839;DHT22;1427;48.510;9.060;2023-12-20T09:17:36;5.90;99.90
2839;DHT22;1427;48.510;9.060;2023-12-20T09:20:05;5.80;99.90
2839;DHT22;1427;48.510;9.060;2023-12-20T09:22:35;5.80;99.90
2839;DHT22;1427;48.510;9.060;2023-12-20T09:25:03;5.80;99.90
2839;DHT22;1427;48.510;9.060;2023-12-20T09:27:31;5.70;99.90
2839;DHT22;1427;48.510;9.060;2023-12-20T09:29:59;5.80;99.90
2839;DHT22;1427;48.510;9.060;2023-12-20T09:32:28;5.70;99.90
2839;DHT22;1427;48.510;9.060;2023-12-20T09:34:57;5.60;99.90
2839;DHT22;1427;48.510;9.060;2023-12-20T09:37:26;5.60;99.90
2839;DHT22;1427;48.510;9.060;2023-12-20T09:39:54;5.60;99.90
2839;DHT22;1427;48.510;9.060;2023-12-20T09:42:36;5.70;99.90
2839;DHT22;1427;48.510;9.060;2023-12-20T09:45:09;5.70;99.90
2839;DHT22;1427;48.510;9.060;2023-12-20T09:47:40;5.70;99.90
2839;DHT22;1427;48.510;9.060;2023-12-20T09:50:09;5.90;99.90
2839;DHT22;1427;48.510;9.060;2023-12-20T09:52:42;6.10;99.90
2839;DHT22;1427;48.510;9.060;2023-12-20T09:55:11;6.30;99.90
2839;DHT22;1427;48.510;9.060;2023-12-20T09:57:43;6.50;99.90
2839;DHT22;1427;48.510;9.060;2023-12-20T10:00:12;6.80;99.90
2839;DHT22;1427;48.510;9.060;2023-12-20T10:02:50;6.90;99.90
2839;DHT22;1427;48.510;9.060;2023-12-20T10:05:29;7.30;99.90
2839;DHT22;1427;48.510;9.060;2023-12-20T10:08:01;8.00;99.90
2839;DHT22;1427;48.510;9.060;2023-12-20T10:10:32;8.60;99.90
2839;DHT22;1427;48.510;9.060;2023-12-20T10:13:13;9.00;99.90
2839;DHT22;1427;48.510;9.060;2023-12-20T10:15:43;9.30;99.90
2839;DHT22;1427;48.510;9.060;2023-12-20T10:18:15;9.30;99.90
2839;DHT22;1427;48.510;9.060;2023-12-20T10:20:45;9.50;99.90
2839;DHT22;1427;48.510;9.060;2023-12-20T10:23:15;9.90;99.90
2839;DHT22;1427;48.510;9.060;2023-12-20T10:25:55;10.40;99.90
2839;DHT22;1427;48.510;9.060;2023-12-20T10:28:24;10.90;99.90
2839;DHT22;1427;48.510;9.060;2023-12-20T10:30:57;10.70;99.90
2839;DHT22;1427;48.510;9.060;2023-12-20T10:33:27;11.20;99.90
2839;DHT22;1427;48.510;9.060;2023-12-20T10:35:59;11.70;99.90
2839;DHT22;1427;48.510;9.060;2023-12-20T10:38:28;12.60;99.90
2839;DHT22;1427;48.510;9.060;2023-12-20T10:40:58;14.60;99.40
2839;DHT22;1427;48.510;9.060;2023-12-20T10:43:28;16.40;95.40
2839;DHT22;1427;48.510;9.060;2023-12-20T10:45:57;17.90;93.20
2839;DHT22;1427;48.510;9.060;2023-12-20T10:48:31;18.60;90.60
2839;DHT22;1427;48.510;9.060;2023-12-20T10:51:01;18.00;90.20
2839;DHT22;1427;48.510;9.060;2023-12-20T10:53:29;16.90;91.00
2839;DHT22;1427;48.510;9.060;2023-12-20T10:56:00;18.30;88.90
2839;DHT22;1427;48.510;9.060;2023-12-20T10:58:32;19.00;85.60
2839;DHT22;1427;48.510;9.060;2023-12-20T11:01:01;20.80;81.10
2839;DHT22;1427;48.510;9.060;2023-12-20T11:03:36;21.30;79.00
2839;DHT22;1427;48.510;9.060;2023-12-20T11:06:09;20.80;76.10
2839;DHT22;1427;48.510;9.060;2023-12-20T11:08:43;21.00;75.90
2839;DHT22;1427;48.510;9.060;2023-12-20T11:11:17;19.00;75.40
2839;DHT22;1427;48.510;9.060;2023-12-20T11:13:55;18.90;77.30
2839;DHT22;1427;48.510;9.060;2023-12-20T11:16:25;20.30;74.40
2839;DHT22;1427;48.510;9.060;2023-12-20T11:19:06;20.40;72.90
2839;DHT22;1427;48.510;9.060;2023-12-20T11:21:34;18.60;75.30
2839;DHT22;1427;48.510;9.060;2023-12-20T11:24:04;18.80;75.70
2839;DHT22;1427;48.510;9.060;2023-12-20T11:26:34;17.90;74.80
2839;DHT22;1427;48.510;9.060;2023-12-20T11:29:29;14.20;82.10
2839;DHT22;1427;48.510;9.060;2023-12-20T11:31:57;12.00;90.30
2839;DHT22;1427;48.510;9.060;2023-12-20T11:34:31;14.00;85.80
2839;DHT22;1427;48.510;9.060;2023-12-20T11:37:02;15.50;82.70
2839;DHT22;1427;48.510;9.060;2023-12-20T11:39:31;16.40;80.90
2839;DHT22;1427;48.510;9.060;2023-12-20T11:42:04;17.60;77.30
2839;DHT22;1427;48.510;9.060;2023-12-20T11:44:35;19.20;73.70
2839;DHT22;1427;48.510;9.060;2023-12-20T11:47:04;20.10;74.00
2839;DHT22;1427;48.510;9.060;2023-12-20T11:49:33;20.30;69.70
2839;DHT22;1427;48.510;9.060;2023-12-20T11:52:02;19.20;70.40
2839;DHT22;1427;48.510;9.060;2023-12-20T11:54:30;17.60;71.30
2839;DHT22;1427;48.510;9.060;2023-12-20T11:56:58;15.60;74.10
2839;DHT22;1427;48.510;9.060;2023-12-20T11:59:27;15.00;76.20
2839;DHT22;1427;48.510;9.060;2023-12-20T12:01:55;13.60;78.30
2839;DHT22;1427;48.510;9.060;2023-12-20T12:04:27;12.00;83.00
2839;DHT22;1427;48.510;9.060;2023-12-20T12:06:57;10.30;87.20
2839;DHT22;1427;48.510;9.060;2023-12-20T12:09:25;9.40;91.40
2839;DHT22;1427;48.510;9.060;2023-12-20T12:11:53;8.60;92.30
2839;DHT22;1427;48.510;9.060;2023-12-20T12:14:21;8.30;93.50
2839;DHT22;1427;48.510;9.060;2023-12-20T12:16:50;8.10;94.10
2839;DHT22;1427;48.510;9.060;2023-12-20T12:19:20;7.80;94.80
2839;DHT22;1427;48.510;9.060;2023-12-20T12:21:49;7.60;95.70
2839;DHT22;1427;48.510;9.060;2023-12-20T12:24:21;7.50;96.30
2839;DHT22;1427;48.510;9.060;2023-12-20T12:26:52;7.70;96.00
2839;DHT22;1427;48.510;9.060;2023-12-20T12:29:20;7.50;96.30
2839;DHT22;1427;48.510;9.060;2023-12-20T12:31:48;7.10;96.90
2839;DHT22;1427;48.510;9.060;2023-12-20T12:34:17;7.10;98.00
2839;DHT22;1427;48.510;9.060;2023-12-20T12:36:46;6.90;98.80
2839;DHT22;1427;48.510;9.060;2023-12-20T12:39:15;6.80;99.80
2839;DHT22;1427;48.510;9.060;2023-12-20T12:41:44;6.70;99.90
2839;DHT22;1427;48.510;9.060;2023-12-20T12:44:12;6.60;99.90
2839;DHT22;1427;48.510;9.060;2023-12-20T12:46:44;6.50;99.90
2839;DHT22;1427;48.510;9.060;2023-12-20T12:49:12;6.60;99.90
2839;DHT22;1427;48.510;9.060;2023-12-20T12:51:40;6.50;99.90
2839;DHT22;1427;48.510;9.060;2023-12-20T12:54:09;6.40;99.90
2839;DHT22;1427;48.510;9.060;2023-12-20T12:56:39;6.40;99.90
2839;DHT22;1427;48.510;9.060;2023-12-20T12:59:09;6.40;99.90
2839;DHT22;1427;48.510;9.060;2023-12-20T13:01:37;6.40;99.90
2839;DHT22;1427;48.510;9.060;2023-12-20T13:04:06;6.30;99.90
2839;DHT22;1427;48.510;9.060;2023-12-20T13:06:38;6.30;99.90
2839;DHT22;1427;48.510;9.060;2023-12-20T13:09:08;6.20;99.90
2839;DHT22;1427;48.510;9.060;2023-12-20T13:11:36;6.30;99.90
2839;DHT22;1427;48.510;9.060;2023-12-20T13:14:04;6.40;99.90
2839;DHT22;1427;48.510;9.060;2023-12-20T13:16:34;6.60;99.90
2839;DHT22;1427;48.510;9.060;2023-12-20T13:19:02;6.40;99.90
2839;DHT22;1427;48.510;9.060;2023-12-20T13:21:30;6.50;99.90
2839;DHT22;1427;48.510;9.060;2023-12-20T13:23:58;6.40;99.90
2839;DHT22;1427;48.510;9.060;2023-12-20T13:26:27;6.60;99.90
2839;DHT22;1427;48.510;9.060;2023-12-20T13:28:55;9.70;99.90
2839;DHT22;1427;48.510;9.060;2023-12-20T13:31:23;12.50;93.40
2839;DHT22;1427;48.510;9.060;2023-12-20T13:33:53;13.40;91.10
2839;DHT22;1427;48.510;9.060;2023-12-20T13:36:21;14.60;90.50
2839;DHT22;1427;48.510;9.060;2023-12-20T13:38:49;16.80;84.10
2839;DHT22;1427;48.510;9.060;2023-12-20T13:41:17;17.00;80.70
2839;DHT22;1427;48.510;9.060;2023-12-20T13:43:45;15.50;81.00
2839;DHT22;1427;48.510;9.060;2023-12-20T13:46:14;14.80;84.30
2839;DHT22;1427;48.510;9.060;2023-12-20T13:48:42;15.90;80.90
2839;DHT22;1427;48.510;9.060;2023-12-20T13:51:11;14.30;82.90
2839;DHT22;1427;48.510;9.060;2023-12-20T13:53:39;13.20;86.80
2839;DHT22;1427;48.510;9.060;2023-12-20T13:56:07;12.30;88.70
2839;DHT22;1427;48.510;9.060;2023-12-20T13:58:35;10.60;91.80
2839;DHT22;1427;48.510;9.060;2023-12-20T14:01:04;9.20;94.80
2839;DHT22;1427;48.510;9.060;2023-12-20T14:03:32;8.90;96.80
2839;DHT22;1427;48.510;9.060;2023-12-20T14:06:00;10.50;94.00
2839;DHT22;1427;48.510;9.060;2023-12-20T14:08:31;9.90;94.20
2839;DHT22;1427;48.510;9.060;2023-12-20T14:10:59;8.80;96.10
2839;DHT22;1427;48.510;9.060;2023-12-20T14:13:30;8.20;97.50
2839;DHT22;1427;48.510;9.060;2023-12-20T14:15:58;7.50;98.70
2839;DHT22;1427;48.510;9.060;2023-12-20T14:18:35;7.20;99.90
2839;DHT22;1427;48.510;9.060;2023-12-20T14:21:04;7.00;99.90
2839;DHT22;1427;48.510;9.060;2023-12-20T14:23:37;6.80;99.90
2839;DHT22;1427;48.510;9.060;2023-12-20T14:26:13;6.70;99.90
2839;DHT22;1427;48.510;9.060;2023-12-20T14:28:42;6.60;99.90
2839;DHT22;1427;48.510;9.060;2023-12-20T14:31:11;6.50;99.90
2839;DHT22;1427;48.510;9.060;2023-12-20T14:33:40;6.40;99.90
2839;DHT22;1427;48.510;9.060;2023-12-20T14:36:09;6.30;99.90
2839;DHT22;1427;48.510;9.060;2023-12-20T14:38:45;6.30;99.90
2839;DHT22;1427;48.510;9.060;2023-12-20T14:41:14;6.20;99.90
2839;DHT22;1427;48.510;9.060;2023-12-20T14:43:44;6.20;99.90
2839;DHT22;1427;48.510;9.060;2023-12-20T14:46:14;6.30;99.90
2839;DHT22;1427;48.510;9.060;2023-12-20T14:48:43;6.20;99.90
2839;DHT22;1427;48.510;9.060;2023-12-20T14:51:14;6.00;99.90
2839;DHT22;1427;48.510;9.060;2023-12-20T14:53:45;6.00;99.90
2839;DHT22;1427;48.510;9.060;2023-12-20T14:56:14;5.80;99.90
2839;DHT22;1427;48.510;9.060;2023-12-20T14:58:43;5.80;99.90
2839;DHT22;1427;48.510;9.060;2023-12-20T15:01:11;5.80;99.90
2839;DHT22;1427;48.510;9.060;2023-12-20T15:03:39;5.90;99.90
2839;DHT22;1427;48.510;9.060;2023-12-20T15:06:08;5.70;99.90
2839;DHT22;1427;48.510;9.060;2023-12-20T15:08:38;5.70;99.90
2839;DHT22;1427;48.510;9.060;2023-12-20T15:11:08;5.70;99.90
2839;DHT22;1427;48.510;9.060;2023-12-20T15:13:36;5.60;99.90
2839;DHT22;1427;48.510;9.060;2023-12-20T15:16:05;5.60;99.90
2839;DHT22;1427;48.510;9.060;2023-12-20T15:18:33;5.50;99.90
2839;DHT22;1427;48.510;9.060;2023-12-20T15:21:02;5.50;99.90
2839;DHT22;1427;48.510;9.060;2023-12-20T15:23:32;5.50;99.90
2839;DHT22;1427;48.510;9.060;2023-12-20T15:26:00;5.50;99.90
2839;DHT22;1427;48.510;9.060;2023-12-20T15:28:31;5.50;99.90
2839;DHT22;1427;48.510;9.060;2023-12-20T15:30:59;5.40;99.90
2839;DHT22;1427;48.510;9.060;2023-12-20T15:33:28;5.30;99.90
2839;DHT22;1427;48.510;9.060;2023-12-20T15:35:56;5.40;99.90
2839;DHT22;1427;48.510;9.060;2023-12-20T15:38:24;5.40;99.90
2839;DHT22;1427;48.510;9.060;2023-12-20T15:40:52;5.40;99.90
2839;DHT22;1427;48.510;9.060;2023-12-20T15:43:20;5.40;99.90
2839;DHT22;1427;48.510;9.060;2023-12-20T15:45:50;5.30;99.90
2839;DHT22;1427;48.510;9.060;2023-12-20T15:48:18;5.30;99.90
2839;DHT22;1427;48.510;9.060;2023-12-20T15:50:47;5.20;99.90
2839;DHT22;1427;48.510;9.060;2023-12-20T15:53:15;5.10;99.90
2839;DHT22;1427;48.510;9.060;2023-12-20T15:55:43;5.10;99.90
2839;DHT22;1427;48.510;9.060;2023-12-20T15:58:11;5.10;99.90
2839;DHT22;1427;48.510;9.060;2023-12-20T16:00:40;5.10;99.90
2839;DHT22;1427;48.510;9.060;2023-12-20T16:03:09;5.10;99.90
2839;DHT22;1427;48.510;9.060;2023-12-20T16:05:51;5.10;99.90
2839;DHT22;1427;48.510;9.060;2023-12-20T16:08:19;5.00;99.90
2839;DHT22;1427;48.510;9.060;2023-12-20T16:10:48;5.10;99.90
2839;DHT22;1427;48.510;9.060;2023-12-20T16:13:16;5.00;99.90
2839;DHT22;1427;48.510;9.060;2023-12-20T16:15:44;5.00;99.90
2839;DHT22;1427;48.510;9.060;2023-12-20T16:18:13;5.00;99.90
2839;DHT22;1427;48.510;9.060;2023-12-20T16:20:41;5.00;99.90
2839;DHT22;1427;48.510;9.060;2023-12-20T16:23:09;4.90;99.90
2839;DHT22;1427;48.510;9.060;2023-12-20T16:25:37;4.90;99.90
2839;DHT22;1427;48.510;9.060;2023-12-20T16:28:06;5.00;99.90